Time;durP1;ratioP1;P1;durP2;ratioP2;P2;SDS_P1;SDS_P2;PMS_P1;PMS_P2;Temp;Humidity;BMP_temperature;BMP_pressure;BME280_temperature;BME280_humidity;BME280_pressure;Samples;Min_cycle;Max_cycle;Signal;HPM_P1;HPM_P2
2023/07/02 00:00:46;;;;;;;4.13;3.47;;;19.40;99.90;;;;;;4209712;28;20062;-57
2023/07/02 00:02:47;;;;;;;4.05;3.50;;;19.40;99.90;;;;;;4210324;28;20044;-59
2023/07/02 00:04:49;;;;;;;4.90;3.10;;;19.40;99.90;;;;;;4209960;28;20042;-69
2023/07/02 00:06:50;;;;;;;5.05;3.75;;;19.40;99.90;;;;;;4211188;28;20023;-73
2023/07/02 00:08:51;;;;;;;4.47;4.05;;;19.40;99.90;;;;;;4210461;28;20475;-67
2023/07/02 00:10:52;;;;;;;8.82;3.78;;;19.30;99.90;;;;;;4211065;28;20065;-73
2023/07/02 00:12:53;;;;;;;4.55;3.97;;;19.30;99.90;;;;;;4210140;28;20028;-66
2023/07/02 00:14:54;;;;;;;9.73;3.60;;;19.40;99.90;;;;;;4211064;28;20028;-60
2023/07/02 00:16:55;;;;;;;4.85;3.72;;;19.40;99.90;;;;;;4209939;28;20036;-61
2023/07/02 00:18:57;;;;;;;4.70;3.15;;;19.40;99.90;;;;;;4210786;28;20093;-67
2023/07/02 00:20:58;;;;;;;10.02;3.63;;;19.40;99.90;;;;;;4210036;28;20517;-59
2023/07/02 00:23:00;;;;;;;7.70;4.10;;;19.40;99.90;;;;;;4210532;28;20074;-60
2023/07/02 00:25:01;;;;;;;5.30;3.63;;;19.40;99.90;;;;;;4209515;28;20553;-71
2023/07/02 00:27:02;;;;;;;8.38;3.83;;;19.40;99.90;;;;;;4191686;28;20033;-69
2023/07/02 00:29:05;;;;;;;9.43;4.25;;;19.40;99.90;;;;;;4210013;28;20105;-69
2023/07/02 00:31:08;;;;;;;6.75;3.45;;;19.40;99.90;;;;;;4209764;28;20468;-67
2023/07/02 00:33:09;;;;;;;4.78;3.88;;;19.40;99.90;;;;;;4210083;28;20541;-68
2023/07/02 00:35:10;;;;;;;5.10;3.45;;;19.30;99.90;;;;;;4209678;28;20054;-55
2023/07/02 00:37:11;;;;;;;7.22;3.67;;;19.40;99.90;;;;;;4210156;28;20048;-61
2023/07/02 00:39:13;;;;;;;10.32;4.05;;;19.30;99.90;;;;;;4210181;28;20077;-59
2023/07/02 00:41:15;;;;;;;7.05;4.20;;;19.30;99.90;;;;;;4209823;28;20048;-58
2023/07/02 00:43:16;;;;;;;4.65;3.88;;;19.30;99.90;;;;;;4209769;28;20089;-60
2023/07/02 00:45:17;;;;;;;11.15;4.07;;;19.30;99.90;;;;;;4210040;28;20033;-60
2023/07/02 00:47:18;;;;;;;6.05;3.90;;;19.30;99.90;;;;;;4208920;28;20105;-61
2023/07/02 00:49:20;;;;;;;5.50;3.70;;;19.30;99.90;;;;;;4210446;28;20129;-61
2023/07/02 00:51:26;;;;;;;4.18;3.75;;;19.40;99.90;;;;;;4209185;28;20044;-62
2023/07/02 00:53:27;;;;;;;6.00;3.40;;;19.30;99.90;;;;;;4210464;28;20032;-61
2023/07/02 00:55:29;;;;;;;4.40;3.63;;;19.30;99.90;;;;;;4209976;28;20466;-60
2023/07/02 00:57:30;;;;;;;7.43;3.90;;;19.30;99.90;;;;;;4209996;28;20035;-61
2023/07/02 00:59:35;;;;;;;5.30;3.30;;;19.40;99.90;;;;;;4210198;28;20032;-60
2023/07/02 01:01:37;;;;;;;4.55;3.42;;;19.30;99.90;;;;;;4209789;28;20021;-60
2023/07/02 01:03:40;;;;;;;4.55;3.70;;;19.30;99.90;;;;;;4210324;28;20024;-61
2023/07/02 01:05:41;;;;;;;5.80;4.00;;;19.30;99.90;;;;;;4209496;28;20032;-60
2023/07/02 01:07:42;;;;;;;4.00;3.55;;;19.20;99.90;;;;;;4192691;28;20029;-61
2023/07/02 01:09:43;;;;;;;4.38;3.30;;;19.30;99.90;;;;;;4209982;28;20032;-61
2023/07/02 01:11:50;;;;;;;5.18;4.38;;;19.30;99.90;;;;;;4194501;28;20029;-60
2023/07/02 01:13:54;;;;;;;6.22;4.28;;;19.30;99.90;;;;;;4212519;28;20028;-61
2023/07/02 01:15:55;;;;;;;4.57;4.07;;;19.30;99.90;;;;;;4213712;28;20024;-60
2023/07/02 01:17:57;;;;;;;7.65;4.00;;;19.30;99.90;;;;;;4212343;28;20070;-59
2023/07/02 01:19:58;;;;;;;6.63;4.32;;;19.30;99.90;;;;;;4213556;28;20024;-73
2023/07/02 01:22:01;;;;;;;7.00;5.57;;;19.20;99.90;;;;;;4193918;28;20037;-71
2023/07/02 01:24:03;;;;;;;9.23;4.95;;;19.20;99.90;;;;;;4213572;28;20318;-73
2023/07/02 01:26:04;;;;;;;11.05;5.55;;;19.10;99.90;;;;;;4212387;28;20028;-71
2023/07/02 01:28:05;;;;;;;8.07;5.70;;;19.10;99.90;;;;;;4213141;28;20036;-71
2023/07/02 01:30:08;;;;;;;13.10;6.40;;;19.00;99.90;;;;;;4211924;28;20046;-71
2023/07/02 01:32:09;;;;;;;16.23;6.78;;;19.00;99.90;;;;;;4212911;28;20485;-76
2023/07/02 01:34:11;;;;;;;9.38;6.43;;;18.80;99.90;;;;;;4212146;28;20027;-68
2023/07/02 01:36:12;;;;;;;13.32;6.55;;;18.60;99.90;;;;;;4212346;28;20484;-69
2023/07/02 01:38:13;;;;;;;8.55;6.22;;;18.60;99.90;;;;;;4212668;28;20096;-73
2023/07/02 01:40:15;;;;;;;10.70;6.63;;;18.50;99.90;;;;;;4211451;28;20116;-68
2023/07/02 01:42:19;;;;;;;9.75;6.70;;;18.40;99.90;;;;;;4213282;28;20032;-70
2023/07/02 01:44:21;;;;;;;9.90;6.35;;;18.30;99.90;;;;;;4211332;28;20036;-67
2023/07/02 01:46:22;;;;;;;9.80;6.57;;;18.30;99.90;;;;;;4212355;28;20090;-68
2023/07/02 01:48:23;;;;;;;11.68;6.32;;;18.20;99.90;;;;;;4210576;28;20040;-67
2023/07/02 01:50:25;;;;;;;20.65;7.50;;;18.10;99.90;;;;;;4212360;28;20342;-68
2023/07/02 01:52:26;;;;;;;8.25;6.05;;;18.00;99.90;;;;;;4211878;28;20096;-71
2023/07/02 01:54:28;;;;;;;11.32;6.68;;;18.00;99.90;;;;;;4213144;28;20016;-72
2023/07/02 01:56:29;;;;;;;12.07;6.40;;;18.00;99.90;;;;;;4211958;28;20032;-71
2023/07/02 01:58:30;;;;;;;8.23;6.00;;;18.00;99.90;;;;;;4212707;28;20426;-69
2023/07/02 02:00:31;;;;;;;10.82;6.95;;;18.00;99.90;;;;;;4211959;28;20024;-68
2023/07/02 02:02:32;;;;;;;9.63;6.63;;;17.90;99.90;;;;;;4212345;28;20020;-71
2023/07/02 02:04:33;;;;;;;9.18;6.45;;;17.90;99.90;;;;;;4212170;28;20028;-68
2023/07/02 02:06:35;;;;;;;9.32;6.40;;;17.90;99.90;;;;;;4211993;28;20062;-68
2023/07/02 02:08:36;;;;;;;10.32;6.25;;;17.90;99.90;;;;;;4212894;28;20086;-67
2023/07/02 02:10:38;;;;;;;9.20;7.00;;;17.80;99.90;;;;;;4211650;28;20139;-61
2023/07/02 02:12:39;;;;;;;11.73;6.90;;;17.90;99.90;;;;;;4212781;28;20032;-71
2023/07/02 02:14:40;;;;;;;8.52;6.68;;;17.90;99.90;;;;;;4210700;28;20039;-60
2023/07/02 02:16:45;;;;;;;10.20;6.82;;;17.90;99.90;;;;;;4211948;28;20070;-70
2023/07/02 02:18:46;;;;;;;7.45;6.13;;;17.90;99.90;;;;;;4211461;28;20097;-61
2023/07/02 02:20:47;;;;;;;12.57;6.28;;;18.00;99.90;;;;;;4194100;28;20485;-64
2023/07/02 02:22:48;;;;;;;12.07;6.97;;;18.00;99.90;;;;;;4210853;28;20032;-69
2023/07/02 02:24:49;;;;;;;8.50;6.63;;;18.10;99.90;;;;;;4212602;28;20032;-71
2023/07/02 02:26:50;;;;;;;16.33;7.13;;;18.10;99.90;;;;;;4210719;28;20040;-63
2023/07/02 02:28:52;;;;;;;10.35;5.72;;;18.10;99.90;;;;;;4212406;28;20036;-59
2023/07/02 02:30:53;;;;;;;10.40;6.00;;;18.10;99.90;;;;;;4211460;28;20426;-70
2023/07/02 02:32:54;;;;;;;9.15;6.05;;;18.00;99.90;;;;;;4211373;28;20135;-69
2023/07/02 02:34:55;;;;;;;9.32;6.15;;;18.00;99.90;;;;;;4210506;28;20090;-68
2023/07/02 02:36:56;;;;;;;7.75;6.22;;;17.90;99.90;;;;;;4211684;28;20504;-73
2023/07/02 02:38:58;;;;;;;8.52;6.18;;;17.90;99.90;;;;;;4211443;28;20100;-58
2023/07/02 02:40:59;;;;;;;10.07;5.95;;;17.90;99.90;;;;;;4208987;28;20865;-59
2023/07/02 02:43:00;;;;;;;13.30;7.20;;;17.90;99.90;;;;;;4211616;28;20044;-61
2023/07/02 02:45:01;;;;;;;10.18;6.78;;;17.90;99.90;;;;;;4211213;28;20089;-61
2023/07/02 02:47:04;;;;;;;13.63;7.25;;;17.90;99.90;;;;;;4212222;28;20028;-60
2023/07/02 02:49:05;;;;;;;10.82;6.57;;;17.90;99.90;;;;;;4210918;28;20120;-59
2023/07/02 02:51:06;;;;;;;7.90;5.35;;;17.90;99.90;;;;;;4212182;28;20403;-58
2023/07/02 02:53:08;;;;;;;9.07;6.60;;;17.90;99.90;;;;;;4210074;28;20044;-60
2023/07/02 02:55:13;;;;;;;12.40;6.75;;;18.00;99.90;;;;;;4211199;28;21072;-60
2023/07/02 02:57:14;;;;;;;11.02;7.35;;;18.10;99.90;;;;;;4210679;28;20040;-59
2023/07/02 02:59:16;;;;;;;10.32;6.95;;;18.20;99.90;;;;;;4212031;28;20020;-60
2023/07/02 03:01:17;;;;;;;11.23;7.05;;;18.20;99.90;;;;;;4209803;28;20036;-57
2023/07/02 03:03:20;;;;;;;8.40;6.47;;;18.30;99.90;;;;;;4193084;28;20040;-60
2023/07/02 03:05:21;;;;;;;8.93;6.80;;;18.40;99.90;;;;;;4210980;28;20020;-60
2023/07/02 03:07:23;;;;;;;12.13;7.90;;;18.40;99.90;;;;;;4210578;28;20105;-58
2023/07/02 03:09:24;;;;;;;11.80;7.35;;;18.40;99.90;;;;;;4211096;28;20140;-58
2023/07/02 03:11:25;;;;;;;12.20;7.50;;;18.30;99.90;;;;;;4210990;28;20039;-58
2023/07/02 03:13:26;;;;;;;8.20;6.82;;;18.30;99.90;;;;;;4210702;28;20085;-73
2023/07/02 03:15:27;;;;;;;10.25;6.55;;;18.20;99.90;;;;;;4210476;28;20541;-68
2023/07/02 03:17:28;;;;;;;13.73;8.15;;;18.10;99.90;;;;;;4211616;28;20044;-59
2023/07/02 03:19:30;;;;;;;16.10;7.40;;;18.10;99.90;;;;;;4209243;28;20481;-57
2023/07/02 03:21:32;;;;;;;16.88;7.65;;;18.10;99.90;;;;;;4210768;28;20048;-59
2023/07/02 03:23:33;;;;;;;10.88;6.65;;;18.10;99.90;;;;;;4209634;28;20097;-57
2023/07/02 03:25:34;;;;;;;8.73;6.75;;;18.10;99.90;;;;;;4210616;28;20056;-57
2023/07/02 03:27:35;;;;;;;10.82;7.03;;;18.10;99.90;;;;;;4210528;28;20393;-59
2023/07/02 03:29:38;;;;;;;9.00;6.78;;;18.10;99.90;;;;;;4211579;28;20027;-59
2023/07/02 03:31:39;;;;;;;11.07;6.70;;;18.10;99.90;;;;;;4210329;28;20430;-60
2023/07/02 03:33:40;;;;;;;9.88;7.10;;;18.00;99.90;;;;;;4210732;28;20032;-59
2023/07/02 03:35:41;;;;;;;10.63;6.78;;;18.00;99.90;;;;;;4210036;28;20024;-63
2023/07/02 03:37:43;;;;;;;12.35;7.32;;;18.00;99.90;;;;;;4210788;28;20039;-59
2023/07/02 03:39:45;;;;;;;9.23;6.10;;;18.00;99.90;;;;;;4176152;28;20037;-57
2023/07/02 03:41:46;;;;;;;14.82;6.65;;;18.10;99.90;;;;;;4210432;28;20070;-58
2023/07/02 03:43:47;;;;;;;10.13;6.32;;;18.10;99.90;;;;;;4210311;28;20052;-72
2023/07/02 03:45:49;;;;;;;8.65;6.55;;;18.20;99.90;;;;;;4209171;28;20101;-72
2023/07/02 03:47:50;;;;;;;13.20;6.72;;;18.30;99.90;;;;;;4210734;28;20040;-73
2023/07/02 03:49:51;;;;;;;10.88;6.75;;;18.40;99.90;;;;;;4209764;28;20077;-65
2023/07/02 03:51:52;;;;;;;30.33;7.25;;;18.50;99.90;;;;;;4211249;28;20024;-61
2023/07/02 03:53:54;;;;;;;8.57;6.60;;;18.50;99.90;;;;;;4210026;28;20031;-59
2023/07/02 03:55:55;;;;;;;9.70;6.20;;;18.50;99.90;;;;;;4210527;28;20044;-60
2023/07/02 03:57:56;;;;;;;11.45;6.80;;;18.50;99.90;;;;;;4210011;28;20040;-59
2023/07/02 03:59:57;;;;;;;11.68;7.65;;;18.60;99.90;;;;;;4211379;28;20376;-59
2023/07/02 04:01:58;;;;;;;9.00;7.63;;;18.60;99.90;;;;;;4191771;28;20036;-60
2023/07/02 04:03:59;;;;;;;24.95;8.95;;;18.60;99.90;;;;;;4210871;28;20062;-59
2023/07/02 04:06:00;;;;;;;9.60;8.00;;;18.50;99.90;;;;;;4209337;28;20036;-59
2023/07/02 04:08:02;;;;;;;19.25;8.75;;;18.50;99.90;;;;;;4210865;28;20101;-59
2023/07/02 04:10:03;;;;;;;14.35;8.80;;;18.50;99.90;;;;;;4210799;28;20612;-60
2023/07/02 04:12:05;;;;;;;15.20;7.95;;;18.40;99.90;;;;;;4210257;28;20570;-60
2023/07/02 04:14:06;;;;;;;10.20;8.05;;;18.50;99.90;;;;;;4209987;28;20039;-59
2023/07/02 04:16:07;;;;;;;13.27;7.95;;;18.50;99.90;;;;;;4209921;28;20032;-56
2023/07/02 04:18:08;;;;;;;16.05;8.70;;;18.50;99.90;;;;;;4210656;28;20077;-59
2023/07/02 04:20:10;;;;;;;12.52;7.65;;;18.50;99.90;;;;;;4209837;28;20390;-60
2023/07/02 04:22:11;;;;;;;16.05;8.45;;;18.60;99.90;;;;;;4210289;28;20575;-60
2023/07/02 04:24:12;;;;;;;11.35;7.80;;;18.70;99.90;;;;;;4209071;28;20036;-59
2023/07/02 04:26:13;;;;;;;10.73;7.63;;;18.70;99.90;;;;;;4211039;28;20040;-59
2023/07/02 04:28:14;;;;;;;10.85;7.43;;;18.70;99.90;;;;;;4208948;28;20043;-60
2023/07/02 04:30:16;;;;;;;12.43;8.18;;;18.80;99.90;;;;;;4210204;28;20086;-59
2023/07/02 04:32:17;;;;;;;13.23;8.85;;;18.80;99.90;;;;;;4209831;28;20039;-60
2023/07/02 04:34:21;;;;;;;16.85;9.32;;;18.90;99.90;;;;;;4209893;28;20036;-60
2023/07/02 04:36:22;;;;;;;20.70;8.73;;;18.90;99.90;;;;;;4209687;28;20032;-60
2023/07/02 04:38:23;;;;;;;18.20;8.25;;;18.90;99.90;;;;;;4210525;28;20101;-59
2023/07/02 04:40:25;;;;;;;22.17;8.43;;;19.00;99.90;;;;;;4209704;28;20062;-59
2023/07/02 04:42:31;;;;;;;11.98;8.43;;;19.10;99.90;;;;;;4210153;28;20472;-59
2023/07/02 04:44:32;;;;;;;20.75;7.95;;;19.20;99.90;;;;;;4210268;28;20024;-60
2023/07/02 04:46:35;;;;;;;13.13;8.10;;;19.40;99.90;;;;;;4212132;28;20093;-58
2023/07/02 04:48:36;;;;;;;13.80;8.27;;;19.50;99.90;;;;;;4213400;28;20102;-68
2023/07/02 04:50:37;;;;;;;11.15;7.88;;;19.70;99.90;;;;;;4212854;28;20073;-59
2023/07/02 04:52:38;;;;;;;10.82;7.28;;;19.80;99.90;;;;;;4213942;28;20054;-63
2023/07/02 04:54:39;;;;;;;9.57;6.55;;;20.00;99.90;;;;;;4212827;28;20089;-63
2023/07/02 04:56:40;;;;;;;11.65;7.55;;;20.20;99.90;;;;;;4213805;28;20428;-61
2023/07/02 04:58:42;;;;;;;14.48;6.40;;;20.30;99.90;;;;;;4212624;28;20085;-63
2023/07/02 05:00:43;;;;;;;7.45;5.30;;;20.50;99.90;;;;;;4213774;28;20028;-61
2023/07/02 05:02:44;;;;;;;6.53;3.92;;;20.70;99.90;;;;;;4212607;28;20020;-68
2023/07/02 05:04:45;;;;;;;5.63;3.72;;;21.00;99.90;;;;;;4213097;28;20120;-63
2023/07/02 05:06:46;;;;;;;4.75;4.25;;;21.10;99.90;;;;;;4211813;28;20565;-63
2023/07/02 05:08:47;;;;;;;4.85;3.80;;;21.40;99.90;;;;;;4213711;28;20032;-60
2023/07/02 05:10:49;;;;;;;5.00;4.00;;;21.50;99.90;;;;;;4213007;28;20476;-59
2023/07/02 05:12:50;;;;;;;6.80;3.60;;;21.60;99.90;;;;;;4213255;28;20035;-66
2023/07/02 05:14:51;;;;;;;4.38;3.97;;;21.70;99.90;;;;;;4212948;28;20027;-66
2023/07/02 05:16:52;;;;;;;7.18;3.70;;;21.70;99.90;;;;;;4212849;28;20082;-61
2023/07/02 05:18:54;;;;;;;5.68;4.00;;;21.70;99.90;;;;;;4212987;28;20032;-59
2023/07/02 05:20:55;;;;;;;4.43;3.90;;;21.80;99.90;;;;;;4212411;28;20032;-66
2023/07/02 05:22:56;;;;;;;7.70;4.15;;;21.80;99.90;;;;;;4212747;28;20090;-58
2023/07/02 05:24:57;;;;;;;4.97;4.47;;;21.80;99.90;;;;;;4211477;28;20089;-59
2023/07/02 05:26:58;;;;;;;7.20;4.07;;;21.70;99.90;;;;;;4213403;28;20039;-59
2023/07/02 05:28:59;;;;;;;6.30;4.63;;;21.70;99.90;;;;;;4212189;28;20177;-56
2023/07/02 05:31:00;;;;;;;7.10;4.40;;;21.80;99.90;;;;;;4213200;28;20059;-58
2023/07/02 05:33:01;;;;;;;5.35;4.00;;;22.00;99.90;;;;;;4211259;28;20196;-59
2023/07/02 05:35:03;;;;;;;5.63;3.83;;;22.10;99.90;;;;;;4212074;28;20433;-59
2023/07/02 05:37:05;;;;;;;5.53;4.70;;;22.10;99.90;;;;;;4193314;28;20032;-59
2023/07/02 05:39:06;;;;;;;5.13;3.95;;;22.10;99.90;;;;;;4213138;28;20101;-59
2023/07/02 05:41:07;;;;;;;5.22;4.20;;;22.10;99.90;;;;;;4212179;28;20058;-59
2023/07/02 05:43:08;;;;;;;6.22;5.60;;;22.00;99.90;;;;;;4212424;28;20475;-59
2023/07/02 05:45:10;;;;;;;6.53;5.05;;;21.90;99.90;;;;;;4212455;28;20036;-59
2023/07/02 05:47:11;;;;;;;5.00;4.28;;;21.80;99.90;;;;;;4212067;28;20460;-59
2023/07/02 05:49:13;;;;;;;6.22;4.50;;;21.70;99.90;;;;;;4212506;28;20052;-59
2023/07/02 05:51:14;;;;;;;5.18;4.68;;;21.70;99.90;;;;;;4210981;28;20085;-63
2023/07/02 05:53:15;;;;;;;6.32;4.30;;;21.80;99.90;;;;;;4194175;28;20040;-63
2023/07/02 05:55:16;;;;;;;6.95;4.15;;;21.90;99.90;;;;;;4210989;28;20082;-65
2023/07/02 05:57:17;;;;;;;6.65;4.20;;;21.90;99.90;;;;;;4211013;28;20040;-59
2023/07/02 05:59:19;;;;;;;7.80;4.30;;;22.10;99.90;;;;;;4211598;28;20365;-59
2023/07/02 06:01:20;;;;;;;5.13;3.90;;;22.40;99.90;;;;;;4211552;28;21305;-62
2023/07/02 06:03:21;;;;;;;4.18;3.78;;;22.50;99.90;;;;;;4211282;28;20024;-61
2023/07/02 06:05:22;;;;;;;3.83;3.53;;;22.60;99.90;;;;;;4212728;28;20137;-64
2023/07/02 06:07:27;;;;;;;4.93;3.60;;;22.60;99.90;;;;;;4211475;28;20085;-66
2023/07/02 06:09:28;;;;;;;4.65;4.05;;;22.70;99.90;;;;;;4212927;28;20032;-61
2023/07/02 06:11:29;;;;;;;5.28;3.83;;;22.60;99.90;;;;;;4210787;28;20149;-66
2023/07/02 06:13:30;;;;;;;6.35;4.20;;;22.60;99.90;;;;;;4212061;28;20024;-60
2023/07/02 06:15:32;;;;;;;6.43;4.75;;;22.40;99.90;;;;;;4211152;28;20036;-59
2023/07/02 06:17:33;;;;;;;5.22;3.83;;;22.20;99.90;;;;;;4211760;28;20530;-60
2023/07/02 06:19:35;;;;;;;10.40;4.82;;;22.00;99.90;;;;;;4210685;28;20109;-65
2023/07/02 06:21:37;;;;;;;9.00;4.45;;;22.00;99.90;;;;;;4210845;28;20434;-67
2023/07/02 06:23:44;;;;;;;5.28;4.35;;;22.10;99.90;;;;;;4212201;28;20028;-59
2023/07/02 06:25:46;;;;;;;11.05;4.40;;;22.20;99.90;;;;;;4209695;28;20044;-58
2023/07/02 06:27:47;;;;;;;9.38;5.63;;;22.20;99.90;;;;;;4212215;28;20129;-58
2023/07/02 06:29:50;;;;;;;12.65;4.68;;;22.30;99.90;;;;;;4210245;28;20032;-58
2023/07/02 06:31:51;;;;;;;10.90;4.50;;;22.30;99.90;;;;;;4210888;28;20448;-59
2023/07/02 06:33:52;;;;;;;4.65;4.25;;;22.30;99.90;;;;;;4210598;28;20020;-60
2023/07/02 06:35:53;;;;;;;5.15;3.95;;;22.30;99.90;;;;;;4211287;28;20044;-59
2023/07/02 06:37:55;;;;;;;5.60;4.13;;;22.30;99.90;;;;;;4210140;28;20044;-59
2023/07/02 06:39:56;;;;;;;5.28;4.35;;;22.30;99.90;;;;;;4211603;28;20044;-60
2023/07/02 06:41:57;;;;;;;5.07;4.00;;;22.20;99.90;;;;;;4209399;28;20089;-59
2023/07/02 06:43:59;;;;;;;4.78;4.18;;;22.30;99.90;;;;;;4211518;28;20032;-60
2023/07/02 06:46:00;;;;;;;5.60;3.97;;;22.30;99.90;;;;;;4210778;28;20077;-61
2023/07/02 06:48:01;;;;;;;6.28;5.38;;;22.30;99.90;;;;;;4210978;28;20032;-61
2023/07/02 06:50:02;;;;;;;9.52;4.30;;;22.40;99.90;;;;;;4210876;28;20506;-58
2023/07/02 06:52:04;;;;;;;7.60;5.22;;;22.60;99.90;;;;;;4210616;28;20036;-61
2023/07/02 06:54:05;;;;;;;7.78;4.45;;;22.70;99.90;;;;;;4210423;28;20472;-59
2023/07/02 06:56:08;;;;;;;9.82;4.30;;;22.90;99.90;;;;;;4210417;28;20081;-59
2023/07/02 06:58:09;;;;;;;9.73;4.95;;;23.20;99.90;;;;;;4211390;28;20085;-59
2023/07/02 07:00:12;;;;;;;12.10;5.40;;;23.30;99.90;;;;;;4210320;28;20032;-59
2023/07/02 07:02:13;;;;;;;6.75;5.05;;;23.20;99.90;;;;;;4210871;28;20413;-59
2023/07/02 07:04:14;;;;;;;14.00;5.28;;;23.00;99.90;;;;;;4210006;28;20122;-59
2023/07/02 07:06:15;;;;;;;11.70;5.68;;;22.80;99.90;;;;;;4210749;28;20492;-59
2023/07/02 07:08:17;;;;;;;13.25;5.75;;;22.70;99.90;;;;;;4209410;28;20040;-59
2023/07/02 07:10:20;;;;;;;12.63;5.25;;;22.60;99.90;;;;;;4211968;28;20083;-60
2023/07/02 07:12:21;;;;;;;13.90;5.43;;;22.40;99.90;;;;;;4191492;28;20041;-59
2023/07/02 07:14:22;;;;;;;13.73;5.70;;;22.40;99.90;;;;;;4210235;28;20039;-59
2023/07/02 07:16:23;;;;;;;10.82;5.15;;;22.40;99.90;;;;;;4210202;28;20024;-60
2023/07/02 07:18:24;;;;;;;11.90;5.28;;;22.40;99.90;;;;;;4210566;28;20145;-60
2023/07/02 07:20:25;;;;;;;9.90;5.55;;;22.40;99.90;;;;;;4210493;28;20097;-59
2023/07/02 07:22:27;;;;;;;13.98;6.78;;;22.30;99.90;;;;;;4209863;28;20032;-60
2023/07/02 07:24:28;;;;;;;13.10;5.65;;;22.20;99.90;;;;;;4210076;28;20052;-59
2023/07/02 07:26:29;;;;;;;14.70;5.43;;;22.20;99.90;;;;;;4209964;28;20426;-60
2023/07/02 07:28:30;;;;;;;13.13;5.50;;;22.20;99.90;;;;;;4210924;28;20032;-59
2023/07/02 07:30:31;;;;;;;15.30;5.10;;;22.20;99.90;;;;;;4209522;28;20069;-59
2023/07/02 07:32:33;;;;;;;13.60;5.57;;;22.20;99.90;;;;;;4210930;28;20031;-59
2023/07/02 07:34:34;;;;;;;19.27;6.15;;;22.20;99.90;;;;;;4209591;28;20093;-62
2023/07/02 07:36:36;;;;;;;19.38;5.80;;;22.10;99.90;;;;;;4192707;28;20481;-59
2023/07/02 07:38:37;;;;;;;11.57;5.40;;;22.10;99.90;;;;;;4208768;28;20048;-60
2023/07/02 07:40:38;;;;;;;12.23;5.22;;;22.20;99.90;;;;;;4211171;28;20471;-59
2023/07/02 07:42:41;;;;;;;11.75;5.15;;;22.20;99.90;;;;;;4190921;28;20266;-59
2023/07/02 07:44:42;;;;;;;12.32;5.43;;;22.20;99.90;;;;;;4210760;28;20028;-59
2023/07/02 07:46:43;;;;;;;13.40;5.55;;;22.20;99.90;;;;;;4209591;28;20016;-58
2023/07/02 07:48:44;;;;;;;10.27;5.15;;;22.30;99.90;;;;;;4210157;28;20048;-59
2023/07/02 07:50:45;;;;;;;16.05;5.47;;;22.30;99.90;;;;;;4209890;28;20734;-59
2023/07/02 07:52:48;;;;;;;11.40;5.25;;;22.30;99.90;;;;;;4209267;28;20032;-59
2023/07/02 07:54:49;;;;;;;9.40;5.35;;;22.30;99.90;;;;;;4209541;28;20097;-59
2023/07/02 07:56:50;;;;;;;11.40;4.80;;;22.30;99.90;;;;;;4209454;28;20036;-59
2023/07/02 07:58:51;;;;;;;10.38;5.07;;;22.30;99.90;;;;;;4209472;28;20097;-58
2023/07/02 08:00:53;;;;;;;10.10;4.90;;;22.30;99.90;;;;;;4208450;28;20089;-59
2023/07/02 08:02:55;;;;;;;6.95;4.65;;;22.40;99.90;;;;;;4192128;28;20052;-57
2023/07/02 08:04:56;;;;;;;9.10;4.47;;;22.50;99.90;;;;;;4191413;28;20021;-59
2023/07/02 08:06:57;;;;;;;6.85;4.03;;;22.60;99.90;;;;;;4210415;28;20078;-60
2023/07/02 08:08:59;;;;;;;10.20;4.72;;;22.60;99.90;;;;;;4209390;28;20032;-64
2023/07/02 08:11:00;;;;;;;9.82;4.30;;;22.70;99.90;;;;;;4209993;28;20131;-61
2023/07/02 08:13:01;;;;;;;5.63;4.47;;;22.70;99.90;;;;;;4209355;28;20025;-59
2023/07/02 08:15:02;;;;;;;7.50;4.15;;;22.70;99.90;;;;;;4209524;28;20040;-65
2023/07/02 08:17:04;;;;;;;7.55;3.75;;;22.80;99.90;;;;;;4209188;28;20032;-64
2023/07/02 08:19:05;;;;;;;4.78;4.20;;;22.80;99.90;;;;;;4209226;28;20099;-59
2023/07/02 08:21:06;;;;;;;5.32;4.38;;;22.70;99.90;;;;;;4211190;28;20126;-60
2023/07/02 08:23:07;;;;;;;4.78;4.10;;;22.70;99.90;;;;;;4213334;28;20188;-60
2023/07/02 08:25:08;;;;;;;7.70;4.38;;;22.80;99.90;;;;;;4213222;28;20024;-65
2023/07/02 08:27:13;;;;;;;5.00;3.97;;;22.80;99.90;;;;;;4212908;28;20618;-63
2023/07/02 08:29:14;;;;;;;4.20;3.70;;;22.90;99.90;;;;;;4213422;28;20032;-67
2023/07/02 08:31:16;;;;;;;8.07;4.30;;;22.80;99.90;;;;;;4212488;28;20024;-59
2023/07/02 08:33:17;;;;;;;5.03;4.22;;;23.00;99.90;;;;;;4213593;28;20164;-62
2023/07/02 08:35:18;;;;;;;5.25;3.85;;;23.10;99.90;;;;;;4212569;28;20069;-66
2023/07/02 08:37:21;;;;;;;6.53;3.67;;;23.40;99.90;;;;;;4212954;28;20553;-60
2023/07/02 08:39:22;;;;;;;7.03;3.85;;;23.60;99.90;;;;;;4212556;28;20442;-60
2023/07/02 08:41:23;;;;;;;8.95;4.20;;;23.80;99.90;;;;;;4213624;28;20035;-60
2023/07/02 08:43:27;;;;;;;4.40;3.30;;;23.90;99.90;;;;;;4212419;28;20110;-60
2023/07/02 08:45:29;;;;;;;7.60;4.00;;;23.80;99.90;;;;;;4213422;28;20020;-59
2023/07/02 08:47:30;;;;;;;7.22;3.78;;;24.00;99.90;;;;;;4212472;28;20032;-60
2023/07/02 08:49:31;;;;;;;6.55;4.03;;;24.10;99.90;;;;;;4212389;28;20090;-60
2023/07/02 08:51:33;;;;;;;4.53;3.38;;;24.20;99.90;;;;;;4193925;28;20041;-60
2023/07/02 08:53:34;;;;;;;5.40;2.97;;;24.00;99.90;;;;;;4212952;28;20086;-61
2023/07/02 08:55:35;;;;;;;4.47;3.40;;;23.90;99.90;;;;;;4212502;28;20383;-61
2023/07/02 08:57:37;;;;;;;5.82;3.72;;;23.90;99.90;;;;;;4212521;28;20046;-60
2023/07/02 08:59:38;;;;;;;4.53;3.10;;;23.90;99.90;;;;;;4194059;28;20050;-60
2023/07/02 09:01:52;;;;;;;3.20;2.85;;;23.90;99.90;;;;;;4211136;28;20101;-59
2023/07/02 09:04:00;;;;;;;3.75;3.30;;;23.90;99.90;;;;;;4212603;28;20430;-59
2023/07/02 09:06:01;;;;;;;3.83;3.15;;;23.90;99.90;;;;;;4212295;28;20074;-61
2023/07/02 09:08:02;;;;;;;3.95;3.25;;;24.10;99.90;;;;;;4212869;28;20752;-57
2023/07/02 09:10:03;;;;;;;4.00;2.83;;;24.30;99.90;;;;;;4211704;28;20077;-59
2023/07/02 09:12:05;;;;;;;5.30;3.58;;;24.40;99.90;;;;;;4213123;28;20093;-57
2023/07/02 09:14:06;;;;;;;6.93;3.35;;;24.30;99.90;;;;;;4211432;28;20398;-59
2023/07/02 09:16:07;;;;;;;6.10;3.53;;;24.30;99.90;;;;;;4213012;28;20460;-59
2023/07/02 09:18:24;;;;;;;3.85;3.20;;;24.20;99.90;;;;;;4211575;28;20120;-59
2023/07/02 09:20:33;;;;;;;3.50;3.20;;;24.20;99.90;;;;;;4212896;28;20093;-60
2023/07/02 09:22:35;;;;;;;6.75;3.63;;;24.40;99.90;;;;;;4211562;28;20024;-60
2023/07/02 09:24:36;;;;;;;4.28;3.15;;;24.80;99.90;;;;;;4212663;28;20061;-59
2023/07/02 09:26:37;;;;;;;3.40;3.10;;;25.00;99.90;;;;;;4211787;28;20184;-59
2023/07/02 09:28:38;;;;;;;5.85;3.35;;;25.10;99.90;;;;;;4211736;28;20089;-60
2023/07/02 09:30:52;;;;;;;4.50;3.35;;;25.00;99.90;;;;;;4210714;28;20032;-60
2023/07/02 09:32:54;;;;;;;5.88;3.22;;;25.20;99.90;;;;;;4212636;28;20081;-59
2023/07/02 09:34:57;;;;;;;6.68;3.17;;;25.40;99.90;;;;;;4211488;28;20028;-60
2023/07/02 09:36:59;;;;;;;5.85;3.88;;;25.70;99.90;;;;;;4212175;28;20028;-59
2023/07/02 09:39:00;;;;;;;3.60;3.30;;;25.90;99.90;;;;;;4211422;28;20434;-59
2023/07/02 09:41:01;;;;;;;5.53;3.22;;;25.90;99.90;;;;;;4212559;28;20058;-60
2023/07/02 09:43:03;;;;;;;4.55;3.25;;;25.90;99.90;;;;;;4211609;28;20028;-58
2023/07/02 09:45:08;;;;;;;6.40;3.35;;;26.00;99.90;;;;;;4211707;28;20028;-60
2023/07/02 09:47:11;;;;;;;6.28;3.28;;;26.00;99.90;;;;;;4212039;28;20093;-59
2023/07/02 09:49:16;;;;;;;4.20;3.33;;;26.20;99.90;;;;;;4209866;28;20048;-60
2023/07/02 09:51:18;;;;;;;4.07;3.17;;;26.30;99.90;;;;;;4212459;28;20456;-60
2023/07/02 09:53:19;;;;;;;5.85;3.50;;;26.60;99.90;;;;;;4211188;28;20097;-61
2023/07/02 09:55:22;;;;;;;4.00;3.60;;;26.80;99.90;;;;;;4211961;28;20101;-61
2023/07/02 09:57:23;;;;;;;15.10;5.53;;;26.90;99.90;;;;;;4211284;28;20081;-59
2023/07/02 09:59:25;;;;;;;5.13;4.30;;;26.90;99.90;;;;;;4212466;28;20452;-59
2023/07/02 10:01:26;;;;;;;10.45;4.57;;;26.60;99.90;;;;;;4210534;28;20121;-59
2023/07/02 10:03:31;;;;;;;11.52;4.65;;;26.50;99.90;;;;;;4211550;28;20059;-59
2023/07/02 10:05:34;;;;;;;16.58;5.55;;;26.40;99.90;;;;;;4211401;28;20020;-59
2023/07/02 10:07:35;;;;;;;7.03;4.30;;;26.20;99.90;;;;;;4193621;28;20131;-59
2023/07/02 10:09:43;;;;;;;15.52;5.55;;;26.20;99.90;;;;;;4211141;28;20082;-61
2023/07/02 10:11:44;;;;;;;8.93;5.43;;;25.90;99.90;;;;;;4212597;28;20024;-59
2023/07/02 10:13:45;;;;;;;6.95;4.47;;;26.00;99.90;;;;;;4211033;28;20074;-59
2023/07/02 10:15:46;;;;;;;8.93;4.40;;;26.00;99.90;;;;;;4211814;28;20032;-59
2023/07/02 10:17:58;;;;;;;9.05;4.82;;;26.20;99.90;;;;;;4210843;28;20029;-59
2023/07/02 10:20:07;;;;;;;5.70;4.70;;;26.30;99.90;;;;;;4210838;28;20056;-61
2023/07/02 10:22:09;;;;;;;5.05;4.32;;;26.40;99.90;;;;;;4210711;28;20558;-58
2023/07/02 10:24:12;;;;;;;5.18;3.92;;;26.50;99.90;;;;;;4211744;28;20036;-61
2023/07/02 10:26:17;;;;;;;4.72;4.13;;;26.70;99.90;;;;;;4211810;28;20017;-60
2023/07/02 10:28:22;;;;;;;5.20;3.85;;;26.90;99.90;;;;;;4211372;28;20024;-60
2023/07/02 10:30:36;;;;;;;4.90;4.53;;;26.90;99.90;;;;;;4211671;28;20081;-63